Cleone, Illinois
Current Conditions -  °F | °C
As of 5:55 AM on Thursday 23 Oct 2014 (Local Time) from KRSV Reporting Station
Haze Haze  
Wind Chill: 33°   Ceiling: 700
Heat Index: 33°   Visibility: 1mi
Dew Point: 33°   Wind: 0mph
Humidity: 100%   Direction: NA
Pressure: 30.26"   Gusts: NA
Location:  39.2747°N, 87.8463°W
Report Text: KRSV 231055Z AUTO 00000KT 1SM BR VV007 01/01 A3026 RMK AO2 T00080008
Loading
Personal Weather Stations






























Interactive Weather Map
Tropical Storm Tracking
New forecast layout! Learn more

10-Day Weather Forecast

Advertisements
Track Severe Weather on mobile